Time;durP1;ratioP1;P1;durP2;ratioP2;P2;SDS_P1;SDS_P2;PMS_P1;PMS_P2;Temp;Humidity;BMP_temperature;BMP_pressure;BME280_temperature;BME280_humidity;BME280_pressure;Samples;Min_cycle;Max_cycle;Signal;HPM_P1;HPM_P2
2022/06/13 00:00:56;;;;;;;6.90;2.35;;;;;;;17.79;58.13;99968.88;12199124;19;20027;-78
2022/06/13 00:04:59;;;;;;;7.65;1.92;;;;;;;17.74;58.87;99961.34;12174662;19;20014;-79
2022/06/13 00:09:03;;;;;;;8.35;2.53;;;;;;;17.71;59.04;99967.53;12198933;19;20014;-80
2022/06/13 00:13:05;;;;;;;4.53;1.98;;;;;;;17.66;58.82;99964.78;12199739;19;20496;-79
2022/06/13 00:17:06;;;;;;;6.75;1.83;;;;;;;17.63;59.29;99965.38;12175782;19;20034;-78
2022/06/13 00:21:08;;;;;;;7.28;2.00;;;;;;;17.56;59.53;99962.09;12198123;19;20006;-80
2022/06/13 00:25:10;;;;;;;8.73;2.38;;;;;;;17.47;59.54;99964.69;12202085;19;20010;-79
2022/06/13 00:29:12;;;;;;;6.77;2.43;;;;;;;17.40;59.88;99972.56;12184372;19;20082;-80
2022/06/13 00:33:13;;;;;;;4.93;2.85;;;;;;;17.28;59.19;99986.00;12188789;19;20281;-79
2022/06/13 00:37:15;;;;;;;4.55;1.90;;;;;;;17.17;59.57;99990.81;12201508;19;20018;-79
2022/06/13 00:41:28;;;;;;;5.83;2.27;;;;;;;17.06;60.46;100000.38;12175806;19;20769;-80
2022/06/13 00:45:33;;;;;;;7.20;2.30;;;;;;;16.97;60.90;100002.91;12199454;19;20350;-79
2022/06/13 00:49:39;;;;;;;7.30;2.47;;;;;;;16.89;61.64;100005.47;12185148;19;20027;-80
2022/06/13 00:53:41;;;;;;;7.90;2.28;;;;;;;16.77;61.62;100012.22;12202853;19;20420;-79
2022/06/13 00:57:43;;;;;;;5.45;2.67;;;;;;;16.67;61.97;100014.19;12191464;19;20030;-79
2022/06/13 01:01:44;;;;;;;11.25;2.70;;;;;;;16.59;62.58;100013.66;12176841;19;20451;-79
2022/06/13 01:05:49;;;;;;;11.25;3.17;;;;;;;16.50;62.58;100014.53;12194263;19;20018;-79
2022/06/13 01:14:31;;;;;;;8.25;2.95;;;;;;;16.36;63.85;100017.94;12175942;19;20030;-81
2022/06/13 01:19:01;;;;;;;8.52;2.58;;;;;;;16.32;64.46;100019.59;12200639;19;20858;-80
2022/06/13 01:23:14;;;;;;;9.70;3.08;;;;;;;16.26;64.00;100022.69;12177160;19;20011;-78
2022/06/13 01:27:28;;;;;;;9.88;2.17;;;;;;;16.14;64.30;100011.88;12188238;19;20082;-80
2022/06/13 01:31:50;;;;;;;8.77;2.40;;;;;;;16.06;65.32;100020.78;12172012;19;20015;-80
2022/06/13 01:36:01;;;;;;;9.98;2.65;;;;;;;16.00;65.55;100027.47;12200571;19;20010;-79
2022/06/13 01:40:19;;;;;;;5.25;2.35;;;;;;;15.94;66.66;100041.38;12192776;19;20057;-80
2022/06/13 01:44:52;;;;;;;5.78;2.30;;;;;;;15.87;66.80;100031.66;12179583;19;20006;-80
2022/06/13 01:49:07;;;;;;;11.00;2.90;;;;;;;15.81;67.17;100030.00;12209447;19;20575;-80
2022/06/13 01:53:26;;;;;;;8.57;2.70;;;;;;;15.76;67.62;100030.00;12175640;19;20011;-79
2022/06/13 01:57:52;;;;;;;8.43;2.45;;;;;;;15.67;68.47;100032.47;12210404;19;20010;-80
2022/06/13 02:02:07;;;;;;;9.73;2.95;;;;;;;15.64;69.21;100035.78;12182935;19;20007;-80
2022/06/13 02:06:21;;;;;;;6.38;2.53;;;;;;;15.60;69.91;100038.31;12206101;19;20018;-80
2022/06/13 02:10:30;;;;;;;7.10;2.63;;;;;;;15.58;69.82;100039.69;12185125;19;20045;-79
2022/06/13 02:14:33;;;;;;;7.30;3.05;;;;;;;15.54;69.41;100030.25;12203915;19;20030;-80
2022/06/13 02:18:41;;;;;;;6.57;2.10;;;;;;;15.50;69.97;100025.25;12196842;19;20034;-80
2022/06/13 02:22:47;;;;;;;8.43;2.55;;;;;;;15.47;70.48;100022.22;12189294;19;20010;-79
2022/06/13 02:26:52;;;;;;;11.80;3.00;;;;;;;15.43;70.75;100027.44;12203501;19;20039;-80
2022/06/13 02:31:02;;;;;;;8.88;3.00;;;;;;;15.40;70.97;100025.22;12198005;19;20432;-79
2022/06/13 02:35:16;;;;;;;7.90;2.65;;;;;;;15.34;71.75;100026.34;12183484;19;20010;-79
2022/06/13 02:39:29;;;;;;;;;;;;;;;15.24;72.10;100027.16;12199980;19;20014;-80
2022/06/13 02:43:38;;;;;;;8.23;2.65;;;;;;;15.21;71.67;100022.16;12173743;19;19910;-78
2022/06/13 02:47:49;;;;;;;6.03;2.53;;;;;;;15.18;71.85;100024.66;12206603;19;20011;-79
2022/06/13 02:52:05;;;;;;;8.65;2.70;;;;;;;15.15;72.55;100019.66;12211981;19;20030;-80
2022/06/13 02:56:28;;;;;;;6.45;2.33;;;;;;;15.09;73.63;100013.28;12171303;19;20023;-80
2022/06/13 03:01:06;;;;;;;9.43;2.65;;;;;;;15.04;73.24;100021.56;12208334;19;20022;-79
2022/06/13 03:05:44;;;;;;;10.75;3.20;;;;;;;14.94;73.58;100025.16;12168207;19;20031;-78
2022/06/13 03:09:52;;;;;;;6.68;2.60;;;;;;;14.81;74.36;100029.31;12195041;19;20014;-80
2022/06/13 03:14:03;;;;;;;7.88;2.80;;;;;;;14.74;74.70;100031.47;12183501;19;20042;-80
2022/06/13 03:18:20;;;;;;;8.52;2.88;;;;;;;14.69;75.26;100030.63;12195584;19;20035;-79
2022/06/13 03:22:36;;;;;;;8.13;2.85;;;;;;;14.63;75.68;100042.81;12191729;19;20049;-78
2022/06/13 03:26:45;;;;;;;7.30;2.88;;;;;;;14.61;75.84;100040.31;12211059;19;20049;-80
2022/06/13 03:31:00;;;;;;;6.15;2.70;;;;;;;14.57;75.97;100055.81;12215819;19;20047;-77
2022/06/13 03:35:07;;;;;;;8.73;3.15;;;;;;;14.52;77.15;100064.13;12223017;19;20467;-80
2022/06/13 03:39:18;;;;;;;6.30;3.50;;;;;;;14.51;77.82;100073.50;12209054;19;20012;-80
2022/06/13 03:43:28;;;;;;;6.95;3.00;;;;;;;14.57;78.58;100083.53;12207341;19;20019;-80
2022/06/13 03:47:36;;;;;;;9.48;3.78;;;;;;;14.72;79.07;100080.00;12182133;19;20030;-81
2022/06/13 03:51:42;;;;;;;6.63;3.30;;;;;;;14.87;79.00;100082.84;12215220;19;20013;-80
2022/06/13 03:55:55;;;;;;;6.50;2.97;;;;;;;15.05;78.11;100092.66;12175646;19;20540;-79
2022/06/13 04:00:08;;;;;;;7.47;2.72;;;;;;;15.19;77.35;100087.38;12198538;19;20026;-80
2022/06/13 04:04:18;;;;;;;8.85;3.47;;;;;;;15.31;76.54;100096.31;12194150;19;20126;-79
2022/06/13 04:08:20;;;;;;;10.35;3.35;;;;;;;15.48;76.30;100094.13;12179019;19;20468;-79
2022/06/13 04:12:44;;;;;;;7.20;2.83;;;;;;;15.65;76.63;100104.16;12195100;19;20035;-78
2022/06/13 04:17:10;;;;;;;7.25;3.42;;;;;;;15.82;75.54;100106.69;12174996;19;20014;-81
2022/06/13 04:21:30;;;;;;;7.57;3.03;;;;;;;15.97;74.40;100111.41;12196831;19;20127;-80
2022/06/13 04:26:31;;;;;;;9.45;2.88;;;;;;;16.06;72.56;100109.72;12179524;19;19998;-80
2022/06/13 04:30:35;;;;;;;4.65;2.38;;;;;;;16.10;71.80;100116.41;12189413;19;20013;-80
2022/06/13 04:34:43;;;;;;;6.65;2.53;;;;;;;16.20;71.22;100121.13;12172227;19;20006;-80
2022/06/13 04:38:49;;;;;;;6.18;2.55;;;;;;;16.34;70.63;100122.22;12201540;19;20015;-81
2022/06/13 04:42:53;;;;;;;7.13;2.67;;;;;;;16.39;69.83;100123.06;12196735;19;20006;-81
2022/06/13 04:46:57;;;;;;;10.10;2.85;;;;;;;16.46;69.21;100124.69;12172718;19;20056;-80
2022/06/13 04:51:03;;;;;;;7.45;2.92;;;;;;;16.56;68.33;100122.72;12202358;19;20472;-80
2022/06/13 04:55:14;;;;;;;11.73;2.70;;;;;;;16.63;67.84;100125.22;12198449;19;20084;-79
2022/06/13 04:59:16;;;;;;;8.40;2.38;;;;;;;16.70;67.20;100136.06;12176455;19;20452;-80
2022/06/13 05:03:25;;;;;;;7.32;2.15;;;;;;;16.80;67.04;100134.09;12190243;19;20006;-79
2022/06/13 05:07:27;;;;;;;5.57;2.28;;;;;;;16.89;66.20;100136.28;12187204;19;20737;-78
2022/06/13 05:11:34;;;;;;;6.15;1.88;;;;;;;16.98;65.64;100140.97;12195819;19;20011;-79
2022/06/13 05:15:36;;;;;;;4.55;1.88;;;;;;;17.09;64.80;100152.91;12200972;19;20019;-80
2022/06/13 05:19:52;;;;;;;7.63;2.00;;;;;;;17.29;63.99;100152.00;12186521;19;20050;-81
2022/06/13 05:24:12;;;;;;;6.38;1.90;;;;;;;17.33;62.70;100152.25;12213574;19;20011;-79
2022/06/13 05:28:21;;;;;;;6.35;1.83;;;;;;;17.23;62.40;100150.34;12207137;19;20066;-79
2022/06/13 05:32:24;;;;;;;9.35;2.20;;;;;;;17.15;62.05;100156.50;12186595;19;20018;-80
2022/06/13 05:36:27;;;;;;;9.50;2.00;;;;;;;17.08;62.03;100162.41;12202298;19;20003;-80
2022/06/13 05:40:29;;;;;;;9.20;1.90;;;;;;;17.06;61.93;100162.66;12188659;19;20364;-80
2022/06/13 05:44:30;;;;;;;9.52;1.88;;;;;;;17.01;62.58;100157.13;12207953;19;20042;-80
2022/06/13 05:48:34;;;;;;;;;;;;;;;17.01;61.98;100153.50;12210618;19;20002;-80
2022/06/13 05:52:35;;;;;;;3.90;1.98;;;;;;;17.02;62.41;100158.78;12184327;19;20703;-79
2022/06/13 05:56:38;;;;;;;10.40;2.25;;;;;;;17.05;62.30;100151.84;12200753;19;20012;-78
2022/06/13 06:00:43;;;;;;;;;;;;;;;17.04;61.53;100164.06;12201670;19;20035;-77
2022/06/13 06:04:44;;;;;;;10.48;2.25;;;;;;;17.04;61.82;100173.28;12180978;19;19914;-80
2022/06/13 06:08:47;;;;;;;6.00;2.10;;;;;;;17.09;62.34;100166.84;12195637;19;20057;-80
2022/06/13 06:12:49;;;;;;;7.13;1.90;;;;;;;17.14;61.45;100175.19;12209511;19;20143;-81
2022/06/13 06:16:50;;;;;;;6.55;1.67;;;;;;;17.23;61.00;100170.69;12176468;19;20540;-79
2022/06/13 06:20:52;;;;;;;7.50;2.15;;;;;;;17.36;61.10;100176.75;12204562;19;20006;-80
2022/06/13 06:24:54;;;;;;;7.75;1.92;;;;;;;17.49;60.27;100176.09;12203713;19;20490;-78
2022/06/13 06:28:55;;;;;;;8.32;2.50;;;;;;;17.57;59.49;100175.50;12176682;19;20869;-79
2022/06/13 06:32:57;;;;;;;6.45;2.80;;;;;;;17.62;58.76;100183.84;12195737;19;20007;-79
2022/06/13 06:36:59;;;;;;;7.50;2.47;;;;;;;17.81;58.80;100183.22;12200977;19;20078;-79
2022/06/13 06:41:01;;;;;;;7.10;2.58;;;;;;;18.03;58.39;100191.97;12189562;19;20006;-81
2022/06/13 06:45:03;;;;;;;6.25;1.95;;;;;;;18.16;57.56;100182.13;12204288;19;20023;-79
2022/06/13 06:49:09;;;;;;;5.82;1.90;;;;;;;18.30;56.98;100193.44;12208439;19;20015;-79
2022/06/13 06:53:12;;;;;;;9.27;2.23;;;;;;;18.45;56.14;100191.34;12211108;19;20084;-77
2022/06/13 07:01:33;;;;;;;8.23;1.60;;;;;;;18.68;55.77;100186.94;12201579;19;19947;-78
2022/06/13 07:05:37;;;;;;;6.93;2.20;;;;;;;18.93;54.81;100192.59;12207894;19;20038;-81
2022/06/13 07:09:39;;;;;;;6.45;2.05;;;;;;;19.06;54.44;100186.28;12209833;19;20014;-80
2022/06/13 07:13:40;;;;;;;9.63;1.92;;;;;;;19.28;54.35;100192.16;12184566;19;20074;-80
2022/06/13 07:17:42;;;;;;;6.15;2.17;;;;;;;19.45;52.90;100188.84;12192094;19;20038;-79
2022/06/13 07:21:43;;;;;;;7.63;2.00;;;;;;;19.62;52.04;100187.53;12207590;19;20010;-80
2022/06/13 07:25:45;;;;;;;7.05;1.90;;;;;;;19.71;50.44;100196.94;12192422;19;20019;-80
2022/06/13 07:29:47;;;;;;;5.00;2.10;;;;;;;19.94;50.46;100198.81;12196984;19;20036;-80
2022/06/13 07:33:49;;;;;;;7.35;2.20;;;;;;;20.11;49.44;100200.22;12197874;19;20046;-80
2022/06/13 07:42:16;;;;;;;5.00;2.22;;;;;;;20.57;47.78;100205.09;12203949;19;20078;-80
2022/06/13 07:46:22;;;;;;;6.30;2.15;;;;;;;20.66;47.15;100195.69;12200860;19;20010;-81
2022/06/13 07:50:25;;;;;;;6.60;1.58;;;;;;;20.68;46.82;100193.41;12185631;19;20010;-80
2022/06/13 07:54:27;;;;;;;5.00;2.03;;;;;;;20.85;46.53;100201.22;12193742;19;20030;-80
2022/06/13 07:58:33;;;;;;;7.38;1.95;;;;;;;20.91;45.14;100210.34;12165283;19;20033;-80
2022/06/13 08:02:36;;;;;;;5.63;1.75;;;;;;;20.74;45.14;100199.75;12196990;19;20009;-80
2022/06/13 08:06:42;;;;;;;5.32;1.77;;;;;;;21.07;45.12;100199.69;12201397;19;20390;-80
2022/06/13 08:10:44;;;;;;;6.35;1.85;;;;;;;21.51;44.01;100204.69;12165214;19;20050;-80
2022/06/13 08:14:47;;;;;;;5.47;2.00;;;;;;;21.80;42.87;100209.94;12189911;19;20100;-79
2022/06/13 08:18:49;;;;;;;3.13;1.60;;;;;;;21.64;43.55;100213.41;12200944;19;20010;-80
2022/06/13 08:22:54;;;;;;;5.57;1.70;;;;;;;21.95;42.43;100207.91;12178588;19;20011;-80
2022/06/13 08:26:55;;;;;;;6.07;1.95;;;;;;;21.74;41.80;100211.16;12202805;19;20082;-80
2022/06/13 08:31:05;;;;;;;8.07;1.70;;;;;;;21.43;41.67;100211.03;12199936;19;20074;-80
2022/06/13 08:35:07;;;;;;;5.82;1.77;;;;;;;21.67;41.45;100207.97;12174755;19;20019;-79
2022/06/13 08:39:09;;;;;;;7.38;2.08;;;;;;;21.96;40.82;100209.59;12213764;19;20010;-80
2022/06/13 08:43:36;;;;;;;7.45;1.70;;;;;;;22.47;41.17;100209.19;12211128;19;20043;-82
2022/06/13 08:47:46;;;;;;;5.15;1.77;;;;;;;22.62;38.77;100199.53;12185016;19;20007;-79
2022/06/13 08:52:03;;;;;;;6.65;2.00;;;;;;;22.56;38.47;100200.81;12224586;19;20026;-81
2022/06/13 08:56:11;;;;;;;4.90;1.80;;;;;;;22.81;38.38;100212.53;12187013;19;20019;-81
2022/06/13 09:00:18;;;;;;;5.72;1.70;;;;;;;22.84;37.55;100220.31;12206148;19;20025;-81
2022/06/13 09:04:33;;;;;;;3.83;1.77;;;;;;;22.96;36.43;100220.56;12211678;19;20010;-79
2022/06/13 09:08:46;;;;;;;7.75;1.85;;;;;;;22.95;36.26;100230.16;12196442;19;20166;-80
2022/06/13 09:12:56;;;;;;;4.18;1.42;;;;;;;23.12;36.60;100233.06;12226470;19;20017;-81
2022/06/13 09:17:18;;;;;;;6.03;1.65;;;;;;;23.28;34.89;100235.44;12188897;19;20010;-80
2022/06/13 09:21:41;;;;;;;8.63;2.13;;;;;;;23.52;34.24;100233.03;12233656;19;20014;-80
2022/06/13 09:25:51;;;;;;;6.43;2.53;;;;;;;23.48;34.84;100232.03;12201343;19;20465;-80
2022/06/13 09:30:32;;;;;;;8.25;1.90;;;;;;;24.00;34.81;100239.78;12224375;19;20015;-81
2022/06/13 09:34:42;;;;;;;4.20;1.58;;;;;;;24.13;35.41;100235.16;12191400;19;20010;-81
2022/06/13 09:38:56;;;;;;;5.53;1.90;;;;;;;24.11;34.60;100246.75;12206582;19;20010;-80
2022/06/13 09:43:12;;;;;;;4.85;1.63;;;;;;;24.15;35.47;100255.34;12210938;19;20014;-80
2022/06/13 09:47:33;;;;;;;5.53;2.13;;;;;;;24.64;34.94;100241.97;12181166;19;20015;-79
2022/06/13 09:51:50;;;;;;;8.40;2.75;;;;;;;25.07;33.93;100252.28;12217812;19;20082;-80
2022/06/13 09:56:18;;;;;;;4.97;2.38;;;;;;;24.61;33.45;100251.91;12179804;19;20412;-80
2022/06/13 10:00:45;;;;;;;9.88;2.78;;;;;;;23.92;34.73;100249.06;12217404;19;20753;-81
2022/06/13 10:05:03;;;;;;;4.70;2.00;;;;;;;23.74;35.00;100246.22;12192326;19;20014;-81
2022/06/13 10:09:08;;;;;;;5.00;1.80;;;;;;;23.22;35.74;100245.16;12217616;19;20010;-80
2022/06/13 10:13:39;;;;;;;7.70;1.80;;;;;;;23.49;35.52;100242.13;12224176;19;20017;-81
2022/06/13 10:18:14;;;;;;;6.25;2.20;;;;;;;24.00;34.58;100237.78;12203195;19;20433;-81
2022/06/13 10:22:42;;;;;;;11.32;1.95;;;;;;;24.48;33.82;100228.41;12271215;19;20015;-79
2022/06/13 10:26:59;;;;;;;5.88;2.00;;;;;;;25.22;33.59;100226.38;12213192;19;20010;-80
2022/06/13 10:31:19;;;;;;;5.95;2.05;;;;;;;25.09;31.70;100233.88;12243058;19;20007;-79
2022/06/13 10:35:40;;;;;;;8.93;2.17;;;;;;;24.60;32.74;100232.50;12214343;19;20013;-80
2022/06/13 10:39:43;;;;;;;7.70;1.98;;;;;;;24.43;33.19;100231.38;12255305;19;20555;-79
2022/06/13 10:43:45;;;;;;;7.32;1.80;;;;;;;24.50;33.66;100234.50;12214185;19;20014;-80
2022/06/13 10:47:54;;;;;;;4.83;1.83;;;;;;;24.31;33.40;100225.56;12238294;19;20040;-80
2022/06/13 10:52:02;;;;;;;3.55;2.00;;;;;;;24.33;33.48;100221.25;12248694;19;20007;-81
2022/06/13 10:56:08;;;;;;;4.22;1.85;;;;;;;24.64;32.99;100222.25;12223893;19;20011;-80
2022/06/13 11:00:23;;;;;;;7.72;2.05;;;;;;;25.01;32.00;100224.28;12245785;19;20471;-80
2022/06/13 11:04:27;;;;;;;6.65;2.13;;;;;;;24.90;32.01;100225.81;12220846;19;20598;-80
2022/06/13 11:08:30;;;;;;;8.50;2.03;;;;;;;24.86;32.45;100230.47;12199251;19;20091;-79
2022/06/13 11:12:38;;;;;;;8.43;1.95;;;;;;;24.89;32.32;100226.16;12213032;19;20062;-80
2022/06/13 11:25:29;;;;;;;4.43;1.67;;;;;;;24.87;32.14;100232.13;12212104;19;20024;-79
2022/06/13 11:29:31;;;;;;;7.07;2.10;;;;;;;25.35;30.99;100224.53;12190181;19;20071;-80
2022/06/13 11:33:40;;;;;;;5.22;1.75;;;;;;;25.14;31.35;100228.09;12213452;19;20010;-81
2022/06/13 11:37:42;;;;;;;4.65;1.90;;;;;;;24.95;32.01;100228.44;12183069;19;20017;-79
2022/06/13 11:41:45;;;;;;;7.73;2.20;;;;;;;24.79;32.17;100216.88;12204140;19;20069;-81
2022/06/13 11:46:03;;;;;;;4.57;1.80;;;;;;;25.69;31.82;100220.66;12204082;19;20007;-80
2022/06/13 11:50:20;;;;;;;7.80;2.03;;;;;;;26.35;30.64;100215.22;12191496;19;20066;-79
2022/06/13 11:54:51;;;;;;;7.43;1.80;;;;;;;26.67;30.59;100209.94;12206490;19;20010;-80
2022/06/13 11:58:55;;;;;;;5.40;1.95;;;;;;;26.52;30.37;100217.06;12183678;19;20031;-81
2022/06/13 12:03:15;;;;;;;8.07;2.22;;;;;;;25.64;30.80;100224.53;12203088;19;20686;-80
2022/06/13 12:07:27;;;;;;;4.57;1.90;;;;;;;24.94;32.37;100209.88;12207278;19;20377;-80
2022/06/13 12:11:29;;;;;;;9.18;2.92;;;;;;;24.56;32.96;100199.38;12179827;19;20014;-80
2022/06/13 12:15:43;;;;;;;4.32;2.03;;;;;;;25.40;32.72;100205.41;12205341;19;20365;-80
2022/06/13 12:20:18;;;;;;;4.72;2.00;;;;;;;27.31;30.19;100200.06;12180022;19;20010;-79
2022/06/13 12:24:34;;;;;;;5.75;2.35;;;;;;;27.63;28.92;100203.09;12197565;19;20035;-80
2022/06/13 12:29:03;;;;;;;7.57;2.80;;;;;;;26.56;30.25;100191.75;12181472;19;20357;-80
2022/06/13 12:33:04;;;;;;;8.32;2.88;;;;;;;25.76;31.52;100204.03;12206172;19;20099;-80
2022/06/13 12:37:09;;;;;;;10.73;2.17;;;;;;;25.32;31.77;100199.81;12213122;19;20007;-80
2022/06/13 12:41:30;;;;;;;5.57;1.73;;;;;;;25.55;31.25;100203.16;12182171;19;20023;-79
2022/06/13 12:45:49;;;;;;;6.82;2.30;;;;;;;26.10;31.78;100204.97;12201116;19;20370;-80
2022/06/13 12:50:20;;;;;;;8.27;2.35;;;;;;;26.87;30.92;100221.56;12187104;19;20015;-80
2022/06/13 12:54:53;;;;;;;6.57;3.47;;;;;;;27.58;30.23;100220.34;12194591;19;20463;-79
2022/06/13 12:59:14;;;;;;;11.00;2.63;;;;;;;29.08;28.15;100211.47;12186980;19;20063;-80
2022/06/13 13:04:05;;;;;;;7.88;2.58;;;;;;;30.55;26.70;100214.94;12203403;19;20042;-80
2022/06/13 13:08:12;;;;;;;5.72;2.47;;;;;;;31.69;25.25;100204.81;12184631;19;20834;-80
2022/06/13 13:12:42;;;;;;;6.90;3.53;;;;;;;32.73;23.49;100226.19;12205543;19;20010;-80
2022/06/13 13:17:06;;;;;;;7.82;2.70;;;;;;;32.47;24.18;100212.03;12180762;19;20010;-81
2022/06/13 13:21:18;;;;;;;8.40;3.38;;;;;;;32.85;23.13;100220.22;12208245;19;20084;-83
2022/06/13 13:26:08;;;;;;;5.93;2.47;;;;;;;32.93;23.17;100198.28;12198782;19;20022;-82
2022/06/13 13:30:48;;;;;;;8.55;3.00;;;;;;;30.81;25.39;100211.41;12093507;19;2004369;-82
2022/06/13 13:35:29;;;;;;;7.32;2.90;;;;;;;29.70;25.20;100211.81;12168917;19;20010;-81
2022/06/13 13:39:46;;;;;;;8.05;3.10;;;;;;;28.34;28.04;100224.34;12202911;19;20002;-80
2022/06/13 13:43:54;;;;;;;5.68;2.80;;;;;;;27.76;28.59;100218.09;12187305;19;20027;-80
2022/06/13 13:48:04;;;;;;;7.53;2.90;;;;;;;27.26;29.89;100228.59;12211288;19;20020;-81
2022/06/13 13:52:10;;;;;;;6.75;2.90;;;;;;;29.10;28.91;100219.63;12230440;19;20010;-81
2022/06/13 13:56:33;;;;;;;7.60;2.95;;;;;;;30.30;27.15;100220.09;12219344;19;20360;-81
2022/06/13 14:00:48;;;;;;;6.80;3.10;;;;;;;30.90;25.80;100221.72;12211109;19;20014;-81
2022/06/13 14:05:10;;;;;;;10.02;3.13;;;;;;;30.81;26.24;100228.47;12190384;19;20003;-82
2022/06/13 14:09:17;;;;;;;10.20;3.08;;;;;;;29.06;27.07;100233.75;12210682;19;20015;-82
2022/06/13 14:13:24;;;;;;;7.47;2.70;;;;;;;28.33;27.75;100225.53;12209474;19;20121;-81
2022/06/13 14:17:36;;;;;;;8.27;2.78;;;;;;;28.29;28.38;100230.25;12194576;19;20023;-81
2022/06/13 14:21:44;;;;;;;7.75;2.63;;;;;;;27.67;28.50;100215.38;12212030;19;20023;-81
2022/06/13 14:25:56;;;;;;;7.47;2.58;;;;;;;27.47;28.92;100211.50;12185317;19;20044;-82
2022/06/13 14:35:12;;;;;;;7.28;2.88;;;;;;;28.58;27.24;100210.09;12189159;19;20011;-81
2022/06/13 14:39:30;;;;;;;5.40;2.17;;;;;;;30.58;25.15;100208.50;12207844;19;20031;-81
2022/06/13 14:44:06;;;;;;;6.50;2.88;;;;;;;30.42;24.33;100199.22;12211987;19;20045;-81
2022/06/13 14:48:34;;;;;;;8.85;2.97;;;;;;;29.52;25.84;100202.84;12108294;19;2006042;-80
2022/06/13 14:52:36;;;;;;;7.85;2.63;;;;;;;30.78;24.34;100200.78;12210780;19;20012;-81
2022/06/13 14:56:39;;;;;;;;;;;;;;;29.51;25.27;100208.91;12213515;19;20042;-82
2022/06/13 15:01:19;;;;;;;13.98;3.55;;;;;;;29.23;26.23;100209.00;12201512;19;20411;-82
2022/06/13 15:05:30;;;;;;;9.48;3.17;;;;;;;28.37;27.24;100209.44;12179966;19;20038;-82
2022/06/13 15:09:47;;;;;;;10.32;3.47;;;;;;;28.11;27.54;100205.06;12207018;19;20030;-81
2022/06/13 15:14:12;;;;;;;6.93;3.03;;;;;;;29.21;26.29;100194.34;12183235;19;20038;-81
2022/06/13 15:18:33;;;;;;;7.85;3.35;;;;;;;31.31;24.76;100177.31;12205990;19;20510;-82
2022/06/13 15:22:42;;;;;;;8.50;3.33;;;;;;;32.50;22.28;100192.09;12207706;19;20006;-80
2022/06/13 15:26:48;;;;;;;12.85;5.25;;;;;;;30.41;23.73;100194.75;12183331;19;20405;-81
2022/06/13 15:31:09;;;;;;;9.77;4.18;;;;;;;29.17;24.81;100204.81;12205407;19;20106;-80
2022/06/13 15:35:15;;;;;;;7.53;3.53;;;;;;;28.17;26.04;100202.81;12185625;19;20062;-80
2022/06/13 15:39:17;;;;;;;8.70;3.38;;;;;;;27.31;27.46;100193.56;12219811;19;20433;-79
2022/06/13 15:43:41;;;;;;;10.60;3.45;;;;;;;27.03;27.41;100191.41;12210820;19;20011;-81
2022/06/13 15:47:46;;;;;;;10.02;2.88;;;;;;;27.04;26.74;100188.25;12183331;19;20337;-81
2022/06/13 15:52:23;;;;;;;5.43;2.50;;;;;;;26.69;27.51;100185.00;12216687;19;20384;-82
2022/06/13 15:56:38;;;;;;;6.05;3.03;;;;;;;26.39;26.50;100195.56;12182399;19;20019;-80
2022/06/13 16:00:41;;;;;;;7.97;3.05;;;;;;;25.94;26.87;100186.97;12200968;19;20416;-81
2022/06/13 16:04:42;;;;;;;9.80;4.22;;;;;;;25.49;28.19;100184.78;12182943;19;20034;-82
2022/06/13 16:08:48;;;;;;;7.82;3.33;;;;;;;25.18;28.16;100192.41;12209295;19;20123;-81
2022/06/13 16:12:55;;;;;;;9.05;3.58;;;;;;;25.20;27.88;100183.63;12214083;19;20163;-82
2022/06/13 16:17:01;;;;;;;6.63;3.10;;;;;;;25.29;27.97;100198.50;12186722;19;20026;-81
2022/06/13 16:21:07;;;;;;;7.00;2.92;;;;;;;25.43;28.16;100206.72;12211296;19;20362;-82
2022/06/13 16:25:10;;;;;;;7.95;3.25;;;;;;;25.11;29.14;100203.34;12206267;19;20006;-82
2022/06/13 16:29:15;;;;;;;9.27;3.60;;;;;;;24.78;30.45;100211.59;12181140;19;20033;-81
2022/06/13 16:33:21;;;;;;;5.68;3.00;;;;;;;24.50;30.62;100211.97;12206341;19;20014;-81
2022/06/13 16:37:25;;;;;;;9.07;4.10;;;;;;;24.25;31.29;100207.19;12208565;19;20425;-81
2022/06/13 16:41:32;;;;;;;11.75;4.07;;;;;;;24.06;31.92;100208.34;12182052;19;20055;-82
2022/06/13 16:45:34;;;;;;;6.13;3.35;;;;;;;23.99;32.18;100208.00;12201455;19;20056;-81
2022/06/13 16:49:38;;;;;;;4.83;2.70;;;;;;;23.97;32.55;100212.28;12211592;19;20006;-81
2022/06/13 16:53:52;;;;;;;7.97;3.22;;;;;;;23.78;32.84;100215.44;12177680;19;20019;-81
2022/06/13 16:58:29;;;;;;;6.53;3.17;;;;;;;23.62;33.18;100212.22;12205998;19;20021;-80
2022/06/13 17:02:34;;;;;;;6.63;2.80;;;;;;;23.41;33.16;100217.63;12179920;19;20023;-81
2022/06/13 17:07:15;;;;;;;10.57;3.08;;;;;;;23.22;34.26;100215.06;12201334;19;20010;-81
2022/06/13 17:11:17;;;;;;;7.57;3.00;;;;;;;23.44;33.68;100216.97;12181732;19;20014;-80
2022/06/13 17:15:20;;;;;;;7.90;3.40;;;;;;;23.47;33.33;100212.66;12201737;19;20313;-80
2022/06/13 17:19:22;;;;;;;9.80;3.20;;;;;;;23.27;33.54;100214.09;12199290;19;20030;-80
2022/06/13 17:23:27;;;;;;;8.27;3.07;;;;;;;23.28;33.46;100210.94;12179832;19;20014;-80
2022/06/13 17:32:08;;;;;;;7.18;3.33;;;;;;;22.95;33.92;100218.91;12206393;19;20006;-79
2022/06/13 17:36:10;;;;;;;9.82;3.38;;;;;;;22.69;33.82;100219.56;12203820;19;20011;-80
2022/06/13 17:40:12;;;;;;;6.38;2.72;;;;;;;22.68;34.09;100220.72;12196756;19;20066;-81
2022/06/13 17:44:17;;;;;;;9.88;3.08;;;;;;;22.87;33.62;100222.47;12175435;19;20141;-80
2022/06/13 17:48:20;;;;;;;8.70;3.38;;;;;;;22.75;33.90;100218.31;12200011;19;20074;-81
2022/06/13 17:52:26;;;;;;;4.82;2.53;;;;;;;22.50;34.10;100228.22;12201085;19;20101;-81
2022/06/13 18:01:08;;;;;;;8.50;3.28;;;;;;;22.29;34.82;100236.31;12187857;19;20074;-80
2022/06/13 18:05:12;;;;;;;8.52;2.38;;;;;;;22.11;35.11;100228.88;12176029;19;20018;-81
2022/06/13 18:09:18;;;;;;;10.60;2.60;;;;;;;22.09;35.29;100233.94;12189420;19;20018;-81
2022/06/13 18:13:21;;;;;;;6.78;2.88;;;;;;;22.06;35.24;100228.97;12195166;19;20360;-81
2022/06/13 18:17:26;;;;;;;8.40;3.03;;;;;;;21.98;35.00;100232.53;12173493;19;20404;-79
2022/06/13 18:21:30;;;;;;;6.55;2.85;;;;;;;21.82;35.15;100235.69;12199414;19;20468;-81
2022/06/13 18:25:32;;;;;;;12.13;4.45;;;;;;;21.77;35.16;100233.00;12204234;19;20077;-80
2022/06/13 18:29:36;;;;;;;9.93;2.60;;;;;;;21.87;34.94;100239.53;12177595;19;20089;-79
2022/06/13 18:33:40;;;;;;;7.03;2.50;;;;;;;21.68;35.32;100246.09;12200548;19;20013;-79
2022/06/13 18:37:42;;;;;;;9.38;2.65;;;;;;;21.49;35.77;100242.59;12181983;19;20038;-81
2022/06/13 18:41:44;;;;;;;7.38;2.30;;;;;;;21.29;35.62;100249.41;12200712;19;20010;-79
2022/06/13 18:45:46;;;;;;;9.50;2.58;;;;;;;21.14;35.76;100250.53;12199906;19;20050;-80
2022/06/13 18:49:51;;;;;;;6.18;2.67;;;;;;;21.01;35.90;100249.38;12199417;19;20018;-79
2022/06/13 18:53:53;;;;;;;10.05;2.40;;;;;;;20.87;36.39;100254.13;12195902;19;20024;-80
2022/06/13 18:57:54;;;;;;;9.15;2.40;;;;;;;20.68;36.35;100254.19;12207260;19;20011;-79
2022/06/13 19:01:58;;;;;;;5.25;2.10;;;;;;;20.56;37.01;100249.06;12180659;19;20018;-78
2022/06/13 19:06:00;;;;;;;10.05;2.78;;;;;;;20.38;37.72;100255.50;12198898;19;20014;-79
2022/06/13 19:10:04;;;;;;;6.75;2.20;;;;;;;20.26;37.30;100262.41;12200735;19;20465;-80
2022/06/13 19:14:09;;;;;;;6.88;2.30;;;;;;;20.06;38.87;100264.66;12164175;19;20102;-80
2022/06/13 19:18:15;;;;;;;6.22;2.25;;;;;;;19.96;38.27;100266.47;12203158;19;20006;-80
2022/06/13 19:22:20;;;;;;;6.53;2.25;;;;;;;19.88;38.35;100283.09;12200380;19;20049;-80
2022/06/13 19:26:22;;;;;;;7.82;2.30;;;;;;;19.72;38.87;100283.31;12182096;19;20006;-80
2022/06/13 19:30:25;;;;;;;5.97;1.92;;;;;;;19.56;39.12;100288.22;12192877;19;20010;-81
2022/06/13 19:34:37;;;;;;;6.30;1.98;;;;;;;19.42;39.87;100284.47;12197946;19;20038;-80
2022/06/13 19:38:41;;;;;;;7.43;2.20;;;;;;;19.28;40.02;100291.91;12164080;19;20007;-79
2022/06/13 20:21:16;;;;;;;5.75;2.38;;;;;;;18.13;44.18;100336.09;12191434;19;20078;-79
2022/06/13 20:26:30;;;;;;;8.10;2.20;;;;;;;18.04;44.46;100346.19;12200872;19;20019;-79